Time;durP1;ratioP1;P1;durP2;ratioP2;P2;SDS_P1;SDS_P2;PMS_P1;PMS_P2;Temp;Humidity;BMP_temperature;BMP_pressure;BME280_temperature;BME280_humidity;BME280_pressure;Samples;Min_cycle;Max_cycle;Signal;HPM_P1;HPM_P2
2022/01/28 00:00:26;;;;;;;32.90;21.90;;;2.20;99.10;;;;;;6211614;28;20488;-63
2022/01/28 00:03:31;;;;;;;30.43;21.53;;;2.20;98.80;;;;;;6213418;28;20587;-66
2022/01/28 00:06:36;;;;;;;33.23;21.90;;;2.10;98.60;;;;;;6214057;28;20472;-66
2022/01/28 00:09:39;;;;;;;34.90;20.30;;;2.10;98.60;;;;;;6215948;28;20605;-66
2022/01/28 00:20:12;;;;;;;30.20;21.90;;;2.00;98.50;;;;;;6186876;28;20491;-65
2022/01/28 00:36:44;;;;;;;26.07;16.60;;;2.00;98.40;;;;;;6194720;28;20472;-63
2022/01/28 00:39:49;;;;;;;23.53;15.20;;;2.00;98.30;;;;;;6224894;28;20476;-64
2022/01/28 00:42:52;;;;;;;20.17;13.70;;;1.90;98.20;;;;;;6225241;28;20487;-65
2022/01/28 00:45:56;;;;;;;18.90;13.87;;;1.80;98.20;;;;;;6225574;28;20479;-64
2022/01/28 00:48:59;;;;;;;22.50;14.43;;;1.80;98.20;;;;;;6233964;28;21042;-65
2022/01/28 00:52:06;;;;;;;21.60;13.90;;;1.80;97.80;;;;;;6228118;28;20468;-62
2022/01/28 00:55:11;;;;;;;21.17;13.73;;;1.80;97.80;;;;;;6241095;28;20490;-62
2022/01/28 00:58:15;;;;;;;20.17;14.13;;;1.90;97.60;;;;;;6241236;28;20988;-62
2022/01/28 01:01:18;;;;;;;16.30;11.70;;;1.90;97.40;;;;;;6250211;28;20470;-61
2022/01/28 01:04:23;;;;;;;14.00;9.90;;;1.80;97.20;;;;;;6238691;28;20463;-60
2022/01/28 01:07:26;;;;;;;15.70;11.97;;;1.80;97.00;;;;;;6234074;28;20482;-61
2022/01/28 01:10:30;;;;;;;15.50;11.00;;;1.80;96.90;;;;;;6233941;28;20511;-61
2022/01/28 01:13:37;;;;;;;18.87;12.53;;;1.80;97.00;;;;;;6232855;28;20467;-61
2022/01/28 01:16:57;;;;;;;22.77;14.97;;;1.80;96.90;;;;;;6231451;28;20479;-61
2022/01/28 01:20:14;;;;;;;19.70;14.00;;;1.80;97.00;;;;;;6240908;28;20471;-59
2022/01/28 01:23:23;;;;;;;19.27;13.90;;;1.80;96.90;;;;;;6206581;28;20465;-59
2022/01/28 01:26:31;;;;;;;17.20;13.63;;;1.80;97.10;;;;;;6201536;28;20535;-61
2022/01/28 01:29:35;;;;;;;18.63;13.67;;;1.80;97.20;;;;;;6200739;28;20477;-59
2022/01/28 01:32:38;;;;;;;19.10;13.40;;;1.70;97.30;;;;;;6202451;28;20786;-59
2022/01/28 01:35:41;;;;;;;20.37;14.33;;;1.80;97.40;;;;;;6206445;28;20472;-60
2022/01/28 01:38:44;;;;;;;22.40;14.60;;;1.80;97.40;;;;;;6206230;28;20477;-60
2022/01/28 01:41:55;;;;;;;21.30;13.70;;;1.80;97.30;;;;;;6205575;28;20487;-61
2022/01/28 01:52:04;;;;;;;22.73;15.40;;;1.80;97.40;;;;;;6205600;28;20484;-60
2022/01/28 01:55:08;;;;;;;22.93;15.40;;;1.70;97.60;;;;;;6205462;28;20480;-60
2022/01/28 01:58:12;;;;;;;24.73;13.40;;;1.70;97.70;;;;;;6204978;28;20860;-60
2022/01/28 02:01:16;;;;;;;21.33;13.80;;;1.70;97.70;;;;;;6205281;28;20480;-59
2022/01/28 02:04:20;;;;;;;20.03;13.20;;;1.70;97.70;;;;;;6205149;28;20472;-59
2022/01/28 02:07:24;;;;;;;21.50;15.70;;;1.70;97.70;;;;;;6205215;28;20480;-59
2022/01/28 02:10:27;;;;;;;22.70;15.57;;;1.70;97.70;;;;;;6205358;28;20988;-59
2022/01/28 02:13:36;;;;;;;27.93;17.60;;;1.70;97.70;;;;;;6205376;28;20538;-59
2022/01/28 02:16:39;;;;;;;29.60;17.13;;;1.60;97.70;;;;;;6205300;28;20966;-59
2022/01/28 02:19:42;;;;;;;25.57;16.83;;;1.60;98.00;;;;;;6205252;28;20484;-59
2022/01/28 02:22:47;;;;;;;30.37;18.53;;;1.50;98.20;;;;;;6225907;28;20471;-60
2022/01/28 02:25:50;;;;;;;27.47;17.73;;;1.50;98.70;;;;;;6229097;28;20476;-59
2022/01/28 02:28:56;;;;;;;27.40;17.87;;;1.40;98.40;;;;;;6229058;28;20480;-59
2022/01/28 02:32:04;;;;;;;25.67;18.37;;;1.40;98.60;;;;;;6223978;28;20965;-60
2022/01/28 02:35:08;;;;;;;25.43;18.33;;;1.40;98.70;;;;;;6228722;28;20570;-60
2022/01/28 02:38:14;;;;;;;29.27;20.40;;;1.20;99.00;;;;;;6228832;28;20472;-60
2022/01/28 02:41:17;;;;;;;29.37;18.77;;;1.20;99.20;;;;;;6228278;28;20996;-60
2022/01/28 02:44:24;;;;;;;22.97;17.10;;;1.20;99.20;;;;;;6227948;28;20472;-60
2022/01/28 02:47:34;;;;;;;31.80;18.87;;;1.30;99.30;;;;;;6229004;28;20463;-60
2022/01/28 02:50:43;;;;;;;34.63;19.27;;;1.30;99.40;;;;;;6228898;28;20472;-60
2022/01/28 02:53:52;;;;;;;24.67;20.07;;;1.40;99.40;;;;;;6228139;28;21039;-61
2022/01/28 02:57:00;;;;;;;32.40;20.80;;;1.40;99.40;;;;;;6228547;28;20854;-61
2022/01/28 03:00:05;;;;;;;27.53;20.50;;;1.40;99.40;;;;;;6228571;28;20448;-61
2022/01/28 03:03:08;;;;;;;35.33;22.53;;;1.50;99.50;;;;;;6228752;28;20448;-62
2022/01/28 03:06:12;;;;;;;40.17;25.70;;;1.50;99.40;;;;;;6228111;28;20908;-61
2022/01/28 03:09:20;;;;;;;37.80;25.53;;;1.40;99.60;;;;;;6228327;28;20451;-61
2022/01/28 03:12:33;;;;;;;39.70;26.00;;;1.30;99.90;;;;;;6227702;28;20896;-61
2022/01/28 03:15:38;;;;;;;36.17;27.43;;;1.30;99.90;;;;;;6228412;28;20469;-61
2022/01/28 03:18:49;;;;;;;37.00;25.50;;;1.40;99.90;;;;;;6227964;28;20504;-61
2022/01/28 03:21:57;;;;;;;37.83;23.63;;;1.40;99.90;;;;;;6227746;28;20480;-61
2022/01/28 03:25:01;;;;;;;30.50;19.90;;;1.30;99.90;;;;;;6227806;28;20538;-61
2022/01/28 03:28:05;;;;;;;2.80;2.43;;;1.40;99.90;;;;;;6227863;28;20468;-61
2022/01/28 03:31:08;;;;;;;1.00;1.00;;;2.00;99.90;;;;;;6227221;28;20479;-61
2022/01/28 03:34:11;;;;;;;0.70;0.70;;;2.80;99.90;;;;;;6227426;28;20488;-61
2022/01/28 03:37:15;;;;;;;0.70;0.70;;;3.50;99.90;;;;;;6227468;28;20567;-61
2022/01/28 03:40:20;;;;;;;0.70;0.60;;;3.90;99.90;;;;;;6227629;28;20541;-61
2022/01/28 03:43:24;;;;;;;0.60;0.60;;;4.30;99.90;;;;;;6227262;28;20490;-61
2022/01/28 03:46:28;;;;;;;0.63;0.50;;;4.70;99.90;;;;;;6227100;28;20473;-61
2022/01/28 03:49:31;;;;;;;0.60;0.60;;;4.90;99.90;;;;;;6227855;28;20991;-61
2022/01/28 03:52:34;;;;;;;1.90;0.80;;;5.20;99.80;;;;;;6227382;28;20960;-61
2022/01/28 03:55:39;;;;;;;0.60;0.60;;;5.30;99.70;;;;;;6226595;28;20912;-61
2022/01/28 03:58:42;;;;;;;0.50;0.50;;;5.40;99.20;;;;;;6226445;28;20483;-61
2022/01/28 04:01:48;;;;;;;0.90;0.90;;;5.50;98.90;;;;;;6226793;28;20480;-62
2022/01/28 04:11:45;;;;;;;0.60;0.60;;;5.60;98.10;;;;;;6224519;28;20487;-62
2022/01/28 04:15:03;;;;;;;0.60;0.50;;;5.60;98.00;;;;;;6250035;28;20538;-62
2022/01/28 04:18:06;;;;;;;0.60;0.60;;;5.60;97.80;;;;;;6250956;28;20463;-62
2022/01/28 04:21:09;;;;;;;0.60;0.60;;;5.70;97.80;;;;;;6250567;28;20494;-62
2022/01/28 04:24:13;;;;;;;0.50;0.50;;;5.70;97.60;;;;;;6251234;28;20458;-62
2022/01/28 04:27:17;;;;;;;0.70;0.70;;;5.70;97.80;;;;;;6251248;28;20545;-62
2022/01/28 04:30:20;;;;;;;0.50;0.50;;;5.70;97.40;;;;;;6251457;28;20447;-62
2022/01/28 04:33:27;;;;;;;0.60;0.57;;;5.70;97.70;;;;;;6251337;28;20455;-62
2022/01/28 04:36:35;;;;;;;0.60;0.50;;;5.70;96.80;;;;;;6250668;28;21074;-61
2022/01/28 04:39:46;;;;;;;0.50;0.50;;;5.80;96.70;;;;;;6250543;28;20532;-61
2022/01/28 04:43:02;;;;;;;0.50;0.50;;;5.80;96.60;;;;;;6250485;28;20486;-61
2022/01/28 04:46:11;;;;;;;0.50;0.50;;;5.80;96.40;;;;;;6250383;28;20483;-61
2022/01/28 04:49:20;;;;;;;0.53;0.53;;;5.80;96.30;;;;;;6250513;28;20474;-61
2022/01/28 04:52:51;;;;;;;0.90;0.60;;;5.80;95.90;;;;;;6250279;28;20977;-62
2022/01/28 04:56:17;;;;;;;0.50;0.50;;;5.90;95.90;;;;;;6249806;28;20855;-62
2022/01/28 04:59:38;;;;;;;0.50;0.50;;;5.80;95.70;;;;;;6249911;28;20475;-62
2022/01/28 05:13:17;;;;;;;0.60;0.60;;;5.70;96.00;;;;;;6249614;28;20848;-61
2022/01/28 05:26:39;;;;;;;0.60;0.60;;;5.50;96.80;;;;;;6174460;28;20485;-63
2022/01/28 05:29:42;;;;;;;0.90;0.90;;;5.40;97.00;;;;;;6174958;28;20799;-61
2022/01/28 05:32:47;;;;;;;1.20;1.20;;;5.40;97.30;;;;;;6246334;28;20466;-62
2022/01/28 05:35:50;;;;;;;0.87;0.87;;;5.40;97.40;;;;;;6249320;28;20568;-62
2022/01/28 05:38:53;;;;;;;0.73;0.70;;;5.30;97.50;;;;;;6249892;28;20482;-61
2022/01/28 05:41:56;;;;;;;0.97;0.97;;;5.30;97.50;;;;;;6249359;28;20960;-61
2022/01/28 05:44:59;;;;;;;1.20;1.10;;;5.30;97.50;;;;;;6240403;28;20975;-61
2022/01/28 05:48:04;;;;;;;0.87;0.87;;;5.30;97.70;;;;;;6249654;28;20482;-61
2022/01/28 05:51:07;;;;;;;1.10;1.00;;;5.20;97.70;;;;;;6249771;28;20749;-61
2022/01/28 05:54:11;;;;;;;1.20;1.10;;;5.20;97.90;;;;;;6249770;28;20459;-62
2022/01/28 05:57:14;;;;;;;1.07;1.07;;;5.20;97.90;;;;;;6249556;28;20446;-61
2022/01/28 06:00:18;;;;;;;1.20;1.10;;;5.10;97.80;;;;;;6249290;28;20483;-62
2022/01/28 06:03:22;;;;;;;0.70;0.70;;;5.10;98.00;;;;;;6249374;28;20462;-62
2022/01/28 06:06:25;;;;;;;0.77;0.77;;;5.00;97.90;;;;;;6249677;28;20459;-62
2022/01/28 06:09:28;;;;;;;2.27;0.80;;;5.00;97.80;;;;;;6249704;28;20463;-62
2022/01/28 06:12:32;;;;;;;1.03;1.03;;;5.00;97.80;;;;;;6248962;28;20855;-62
2022/01/28 06:15:35;;;;;;;1.00;0.90;;;5.00;97.80;;;;;;6249243;28;20477;-62
2022/01/28 06:18:40;;;;;;;1.47;1.37;;;5.10;97.80;;;;;;6248669;28;20529;-62
2022/01/28 06:21:43;;;;;;;1.90;1.80;;;5.00;97.60;;;;;;6253251;28;20532;-62
2022/01/28 06:24:46;;;;;;;5.47;1.83;;;5.00;97.50;;;;;;6253107;28;20478;-62
2022/01/28 06:27:49;;;;;;;2.37;1.90;;;4.90;97.50;;;;;;6253513;28;20478;-62
2022/01/28 06:30:52;;;;;;;2.10;1.70;;;4.90;97.60;;;;;;6253583;28;20532;-62
2022/01/28 06:33:57;;;;;;;1.67;1.33;;;4.80;97.80;;;;;;6254613;28;20490;-61
2022/01/28 06:37:00;;;;;;;2.20;1.30;;;4.70;98.00;;;;;;6253747;28;20466;-61
2022/01/28 06:40:05;;;;;;;1.30;1.20;;;4.80;98.00;;;;;;6253062;28;20541;-60
2022/01/28 06:43:09;;;;;;;2.37;2.00;;;4.80;98.10;;;;;;6252795;28;20482;-61
2022/01/28 06:46:12;;;;;;;2.97;2.33;;;4.70;98.00;;;;;;6247978;28;20857;-61
2022/01/28 06:49:16;;;;;;;3.70;2.20;;;4.80;98.00;;;;;;6252907;28;20864;-61
2022/01/28 06:52:20;;;;;;;4.50;2.00;;;4.70;97.90;;;;;;6253111;28;20479;-61
2022/01/28 06:55:23;;;;;;;8.03;3.10;;;4.70;98.00;;;;;;6252601;28;20969;-61
2022/01/28 06:58:26;;;;;;;2.33;1.90;;;4.70;98.10;;;;;;6253231;28;20479;-60
2022/01/28 07:01:29;;;;;;;5.70;4.47;;;4.70;98.20;;;;;;6253522;28;20482;-61
2022/01/28 07:04:33;;;;;;;5.67;4.50;;;4.70;98.10;;;;;;6253287;28;20478;-62
2022/01/28 07:07:37;;;;;;;4.27;3.87;;;4.70;98.00;;;;;;6253433;28;20478;-62
2022/01/28 07:10:40;;;;;;;3.30;3.10;;;4.60;98.00;;;;;;6252716;28;20471;-62
2022/01/28 07:13:43;;;;;;;5.23;3.93;;;4.60;98.00;;;;;;6253149;28;20847;-61
2022/01/28 07:16:46;;;;;;;3.90;3.50;;;4.60;98.00;;;;;;6254132;28;20471;-61
2022/01/28 07:19:51;;;;;;;6.67;4.20;;;4.50;98.00;;;;;;6252669;28;20815;-61
2022/01/28 07:22:54;;;;;;;7.03;3.70;;;4.50;98.00;;;;;;6251804;28;20866;-61
2022/01/28 07:25:57;;;;;;;4.73;3.30;;;4.60;98.00;;;;;;6252322;28;20474;-61
2022/01/28 07:29:00;;;;;;;5.70;3.30;;;4.50;98.10;;;;;;6251887;28;20788;-61
2022/01/28 07:32:04;;;;;;;5.60;2.90;;;4.50;98.30;;;;;;6251490;28;20541;-61
2022/01/28 07:35:09;;;;;;;7.03;3.87;;;4.50;98.40;;;;;;6252003;28;20479;-61
2022/01/28 07:38:12;;;;;;;4.27;2.90;;;4.50;98.50;;;;;;6252279;28;20820;-61
2022/01/28 07:41:16;;;;;;;2.80;2.27;;;4.50;98.50;;;;;;6251421;28;20548;-62
2022/01/28 07:44:19;;;;;;;4.70;2.43;;;4.60;98.70;;;;;;6250183;28;20976;-62
2022/01/28 07:47:22;;;;;;;3.07;1.70;;;4.60;98.70;;;;;;6250022;28;20474;-62
2022/01/28 07:50:27;;;;;;;2.10;2.00;;;4.70;98.60;;;;;;6250058;28;20533;-62
2022/01/28 07:53:30;;;;;;;4.03;2.00;;;4.70;98.60;;;;;;6250612;28;20949;-61
2022/01/28 07:56:33;;;;;;;2.33;2.03;;;4.90;98.90;;;;;;6250703;28;20513;-62
2022/01/28 07:59:36;;;;;;;2.70;1.83;;;5.00;98.50;;;;;;6250779;28;20483;-61
2022/01/28 08:02:42;;;;;;;2.90;1.67;;;5.20;98.10;;;;;;6250960;28;20486;-62
2022/01/28 08:05:47;;;;;;;2.93;2.37;;;5.30;97.80;;;;;;6250880;28;20475;-62
2022/01/28 08:08:52;;;;;;;2.20;1.37;;;5.40;97.40;;;;;;6250419;28;20478;-62
2022/01/28 08:11:55;;;;;;;3.43;1.73;;;5.50;97.20;;;;;;6250975;28;20475;-62
2022/01/28 08:14:58;;;;;;;1.67;1.57;;;5.60;97.10;;;;;;6251805;28;20475;-62
2022/01/28 08:18:06;;;;;;;1.87;1.77;;;5.70;96.80;;;;;;6250142;28;20451;-62
2022/01/28 08:21:11;;;;;;;1.23;1.10;;;5.80;96.60;;;;;;6248780;28;20498;-61
2022/01/28 08:24:14;;;;;;;1.97;1.23;;;5.90;96.00;;;;;;6247320;28;20463;-63
2022/01/28 08:27:17;;;;;;;2.50;0.63;;;6.20;94.40;;;;;;6249375;28;20450;-63
2022/01/28 08:30:21;;;;;;;2.27;0.83;;;6.40;93.10;;;;;;6248735;28;20443;-63
2022/01/28 08:33:24;;;;;;;2.07;1.43;;;6.70;92.30;;;;;;6250538;28;20884;-63
2022/01/28 08:36:29;;;;;;;1.80;0.90;;;7.20;92.10;;;;;;6250595;28;20893;-63
2022/01/28 08:39:34;;;;;;;0.70;0.70;;;7.60;90.90;;;;;;6249591;28;20580;-62
2022/01/28 08:42:38;;;;;;;6.03;1.70;;;8.00;88.00;;;;;;6248981;28;20963;-61
2022/01/28 08:45:41;;;;;;;3.60;1.40;;;8.20;87.50;;;;;;6250018;28;20474;-64
2022/01/28 08:48:44;;;;;;;1.50;1.40;;;8.50;84.40;;;;;;6249303;28;20475;-62
2022/01/28 08:51:49;;;;;;;3.07;0.87;;;8.60;81.10;;;;;;6249958;28;20474;-62
2022/01/28 08:54:52;;;;;;;0.80;0.80;;;8.70;80.40;;;;;;6245175;28;20863;-62
2022/01/28 08:57:57;;;;;;;1.07;0.70;;;8.70;79.70;;;;;;6246471;28;20482;-63
2022/01/28 09:01:00;;;;;;;4.53;0.80;;;8.70;80.50;;;;;;6236421;28;20475;-61
2022/01/28 09:04:05;;;;;;;3.40;1.00;;;8.70;80.90;;;;;;6249901;28;20557;-63
2022/01/28 09:07:10;;;;;;;1.57;1.00;;;8.50;81.00;;;;;;6249726;28;21016;-63
2022/01/28 09:10:18;;;;;;;0.80;0.70;;;8.20;81.90;;;;;;6248790;28;20609;-63
2022/01/28 09:13:26;;;;;;;2.40;1.50;;;8.00;82.40;;;;;;6250020;28;20482;-63
2022/01/28 09:16:29;;;;;;;1.70;1.60;;;7.80;83.60;;;;;;6249964;28;20482;-63
2022/01/28 09:19:33;;;;;;;1.03;0.97;;;7.70;84.00;;;;;;6250117;28;20475;-63
2022/01/28 09:22:38;;;;;;;1.30;1.20;;;7.50;84.20;;;;;;6249193;28;20482;-62
2022/01/28 09:25:41;;;;;;;2.60;1.00;;;7.40;85.00;;;;;;6249239;28;20467;-61
2022/01/28 09:28:44;;;;;;;3.07;1.13;;;7.30;85.00;;;;;;6250402;28;20471;-63
2022/01/28 09:31:47;;;;;;;1.10;1.00;;;7.30;85.50;;;;;;6232121;28;20491;-64
2022/01/28 09:34:51;;;;;;;1.43;1.10;;;7.30;85.00;;;;;;6225038;28;20557;-63
2022/01/28 09:37:55;;;;;;;1.43;0.60;;;7.30;84.60;;;;;;6224926;28;20811;-62
2022/01/28 09:41:01;;;;;;;0.87;0.87;;;7.30;84.90;;;;;;6224336;28;20476;-62
2022/01/28 09:44:08;;;;;;;3.27;1.43;;;7.30;85.00;;;;;;6224492;28;20476;-61
2022/01/28 09:47:13;;;;;;;4.10;1.77;;;7.30;85.00;;;;;;6225280;28;20479;-62
2022/01/28 09:50:16;;;;;;;12.90;9.43;;;7.40;84.50;;;;;;6225442;28;20961;-63
2022/01/28 09:53:21;;;;;;;3.07;1.30;;;7.40;84.40;;;;;;6225389;28;20542;-63
2022/01/28 09:56:24;;;;;;;1.57;1.47;;;7.40;83.30;;;;;;6232308;28;20467;-63
2022/01/28 09:59:27;;;;;;;4.67;3.20;;;7.60;82.90;;;;;;6254096;28;20479;-62
2022/01/28 10:02:54;;;;;;;3.30;2.03;;;7.70;82.30;;;;;;6240017;28;20501;-63
2022/01/28 10:05:58;;;;;;;3.13;2.73;;;7.90;81.30;;;;;;6254156;28;20486;-61
2022/01/28 10:09:08;;;;;;;2.60;1.40;;;8.20;80.60;;;;;;6253911;28;20482;-63
2022/01/28 10:12:19;;;;;;;2.37;1.63;;;8.60;78.30;;;;;;6254309;28;20454;-62
2022/01/28 10:15:29;;;;;;;2.83;1.23;;;9.30;75.90;;;;;;6254286;28;20570;-62
2022/01/28 10:18:41;;;;;;;2.97;0.73;;;11.70;70.50;;;;;;6253538;28;20788;-64
2022/01/28 10:21:46;;;;;;;4.03;3.80;;;14.90;58.10;;;;;;6253357;28;20889;-64
2022/01/28 10:24:50;;;;;;;2.80;1.43;;;18.80;46.00;;;;;;6252970;28;20474;-64
2022/01/28 10:27:58;;;;;;;1.60;0.80;;;22.20;35.50;;;;;;6253117;28;20545;-63
2022/01/28 10:31:04;;;;;;;1.13;0.50;;;23.80;29.70;;;;;;6253248;28;20235;-66
2022/01/28 10:34:13;;;;;;;3.33;0.80;;;24.50;28.50;;;;;;6253456;28;20224;-64
2022/01/28 10:37:19;;;;;;;1.77;0.60;;;27.20;27.50;;;;;;6253112;28;20673;-65
2022/01/28 10:40:24;;;;;;;1.90;0.60;;;27.70;24.00;;;;;;6252858;28;20292;-65
2022/01/28 10:43:27;;;;;;;3.30;0.70;;;25.50;24.30;;;;;;6247205;28;20783;-63
2022/01/28 10:46:34;;;;;;;1.63;0.63;;;24.40;24.30;;;;;;6236559;28;20232;-64
2022/01/28 10:49:37;;;;;;;6.27;1.63;;;22.50;25.70;;;;;;6235179;28;20676;-63
2022/01/28 10:52:40;;;;;;;1.03;0.43;;;21.10;26.30;;;;;;6240367;28;20224;-63
2022/01/28 10:55:48;;;;;;;8.23;0.93;;;19.60;27.80;;;;;;6243015;28;20239;-63
2022/01/28 10:58:52;;;;;;;4.57;1.20;;;18.40;29.00;;;;;;6244569;28;20221;-62
2022/01/28 11:01:55;;;;;;;2.20;0.70;;;17.20;30.00;;;;;;6227959;28;20500;-63
2022/01/28 11:04:59;;;;;;;2.00;0.70;;;15.80;32.10;;;;;;6217719;28;20896;-62
2022/01/28 11:08:04;;;;;;;1.80;0.60;;;15.10;33.30;;;;;;6228460;28;20542;-62
2022/01/28 11:11:09;;;;;;;1.00;0.63;;;16.20;34.10;;;;;;6227832;28;20480;-63
2022/01/28 11:14:12;;;;;;;0.77;0.77;;;20.30;30.00;;;;;;6227734;28;20565;-65
2022/01/28 11:17:17;;;;;;;2.83;0.70;;;23.90;27.40;;;;;;6227582;28;20277;-64
2022/01/28 11:20:23;;;;;;;0.80;0.50;;;27.00;24.50;;;;;;6227015;28;20238;-63
2022/01/28 11:23:32;;;;;;;1.00;0.40;;;29.10;22.50;;;;;;6238843;28;20242;-64
2022/01/28 11:26:46;;;;;;;0.80;0.50;;;30.80;20.50;;;;;;6251099;28;20685;-64
2022/01/28 11:29:51;;;;;;;1.77;0.40;;;30.60;19.50;;;;;;6250223;28;20231;-64
2022/01/28 11:33:02;;;;;;;2.60;0.67;;;28.70;20.60;;;;;;6250352;28;20362;-63
2022/01/28 11:36:05;;;;;;;2.10;0.80;;;26.80;21.40;;;;;;6250188;28;20572;-63
2022/01/28 11:39:22;;;;;;;1.00;0.60;;;25.40;21.50;;;;;;6250278;28;20279;-63
2022/01/28 11:42:30;;;;;;;2.30;0.80;;;25.20;22.40;;;;;;6251865;28;20258;-63
2022/01/28 11:45:42;;;;;;;2.50;0.77;;;25.50;21.90;;;;;;6251501;28;20737;-63
2022/01/28 11:49:24;;;;;;;1.43;0.77;;;23.70;23.60;;;;;;6251562;28;20584;-63
2022/01/28 11:52:30;;;;;;;3.13;0.60;;;21.90;23.80;;;;;;6251130;28;20284;-63
2022/01/28 11:55:34;;;;;;;4.57;0.73;;;19.20;26.10;;;;;;6251299;28;20657;-64
2022/01/28 11:58:57;;;;;;;0.50;0.33;;;17.00;27.90;;;;;;6251550;28;20247;-64
2022/01/28 12:02:13;;;;;;;0.90;0.40;;;17.50;29.60;;;;;;6251125;28;20499;-64
2022/01/28 12:05:49;;;;;;;1.87;0.60;;;20.50;28.80;;;;;;6251067;28;20602;-64
2022/01/28 12:08:54;;;;;;;1.20;0.40;;;24.60;25.80;;;;;;6228730;28;20236;-64
2022/01/28 12:11:59;;;;;;;2.87;0.97;;;26.50;22.60;;;;;;6250344;28;20241;-65
2022/01/28 12:15:10;;;;;;;2.20;0.77;;;28.70;21.80;;;;;;6251136;28;20226;-64
2022/01/28 12:18:13;;;;;;;1.30;0.63;;;30.40;20.00;;;;;;6249418;28;20238;-64
2022/01/28 12:21:18;;;;;;;0.80;0.30;;;30.30;19.00;;;;;;6250545;28;20381;-65
2022/01/28 12:24:32;;;;;;;3.73;0.63;;;31.30;18.90;;;;;;6250412;28;20205;-64
2022/01/28 12:27:35;;;;;;;2.40;0.47;;;31.80;17.50;;;;;;6250284;28;20246;-63
2022/01/28 12:30:42;;;;;;;1.57;0.40;;;31.20;17.30;;;;;;6244441;28;20238;-63
2022/01/28 12:33:48;;;;;;;2.67;0.80;;;30.50;17.30;;;;;;6232463;28;20232;-63
2022/01/28 12:36:51;;;;;;;0.80;0.50;;;30.20;17.80;;;;;;6234187;28;20650;-62
2022/01/28 12:39:59;;;;;;;2.30;0.73;;;30.30;17.40;;;;;;6250189;28;20235;-62
2022/01/28 12:43:03;;;;;;;1.10;0.70;;;28.90;17.70;;;;;;6249748;28;20258;-62
2022/01/28 12:46:10;;;;;;;3.43;0.50;;;28.50;18.10;;;;;;6249911;28;20249;-62
2022/01/28 12:49:13;;;;;;;0.90;0.57;;;25.80;19.20;;;;;;6250284;28;20220;-63
2022/01/28 12:52:16;;;;;;;0.97;0.70;;;21.30;22.00;;;;;;6249786;28;20289;-61
2022/01/28 12:55:19;;;;;;;1.13;0.70;;;18.40;24.70;;;;;;6249952;28;20369;-63
2022/01/28 12:58:35;;;;;;;0.63;0.57;;;16.40;26.80;;;;;;6250140;28;20467;-63
2022/01/28 13:01:39;;;;;;;0.60;0.50;;;15.10;29.10;;;;;;6247653;28;20487;-63
2022/01/28 13:05:00;;;;;;;0.70;0.50;;;16.30;28.70;;;;;;6225381;28;20976;-64
2022/01/28 13:11:25;;;;;;;2.27;0.80;;;15.50;29.30;;;;;;6225927;28;20491;-63
2022/01/28 13:14:30;;;;;;;0.70;0.53;;;18.80;28.20;;;;;;6225172;28;20472;-64
2022/01/28 13:17:41;;;;;;;0.60;0.60;;;21.90;25.20;;;;;;6224927;28;20236;-64
2022/01/28 13:20:44;;;;;;;0.90;0.77;;;23.60;23.20;;;;;;6225085;28;20251;-62
2022/01/28 13:23:47;;;;;;;0.63;0.40;;;23.50;22.80;;;;;;6239118;28;20224;-63
2022/01/28 13:26:59;;;;;;;1.43;0.60;;;21.70;23.60;;;;;;6249618;28;20229;-63
2022/01/28 13:30:12;;;;;;;1.20;0.50;;;21.00;24.80;;;;;;6250079;28;20235;-63
2022/01/28 13:33:28;;;;;;;0.73;0.50;;;20.10;25.00;;;;;;6230332;28;20189;-63
2022/01/28 13:36:47;;;;;;;0.50;0.40;;;18.80;26.20;;;;;;6238131;28;20650;-63
2022/01/28 13:39:51;;;;;;;0.90;0.60;;;17.50;27.50;;;;;;6253324;28;20479;-63
2022/01/28 13:42:59;;;;;;;0.90;0.50;;;16.90;28.50;;;;;;6253786;28;20532;-63
2022/01/28 13:46:14;;;;;;;0.70;0.50;;;16.10;29.80;;;;;;6254665;28;20474;-63
2022/01/28 13:49:19;;;;;;;0.93;0.30;;;14.80;30.90;;;;;;6255064;28;20467;-63
2022/01/28 13:52:28;;;;;;;0.80;0.80;;;13.50;33.70;;;;;;6257055;28;20825;-63
2022/01/28 13:55:32;;;;;;;0.40;0.40;;;12.50;36.50;;;;;;6255858;28;20529;-64
2022/01/28 13:58:48;;;;;;;0.67;0.40;;;13.40;36.30;;;;;;6254581;28;20512;-63
2022/01/28 14:01:54;;;;;;;0.83;0.40;;;14.60;34.30;;;;;;6254201;28;20474;-64
2022/01/28 14:05:00;;;;;;;1.00;0.40;;;14.70;34.20;;;;;;6254100;28;20473;-63
2022/01/28 14:08:04;;;;;;;1.37;0.43;;;15.10;33.60;;;;;;6253649;28;20569;-63
2022/01/28 14:11:28;;;;;;;0.80;0.60;;;15.00;33.10;;;;;;6253833;28;20948;-64
2022/01/28 14:14:34;;;;;;;1.23;0.30;;;15.20;33.80;;;;;;6253569;28;20471;-63
2022/01/28 14:17:40;;;;;;;0.70;0.70;;;16.10;32.00;;;;;;6253659;28;20554;-64
2022/01/28 14:20:46;;;;;;;1.07;0.77;;;16.70;31.50;;;;;;6253499;28;20487;-64
2022/01/28 14:23:49;;;;;;;0.50;0.40;;;17.00;30.90;;;;;;6253535;28;20489;-64
2022/01/28 14:26:59;;;;;;;3.63;1.57;;;16.60;30.30;;;;;;6253572;28;20861;-64
2022/01/28 14:30:04;;;;;;;0.60;0.40;;;16.10;30.50;;;;;;6253606;28;20470;-64
2022/01/28 14:33:10;;;;;;;1.73;0.60;;;15.20;31.20;;;;;;6253303;28;20443;-64
2022/01/28 14:36:14;;;;;;;1.43;0.70;;;14.40;32.50;;;;;;6254199;28;20477;-64
2022/01/28 14:39:40;;;;;;;0.70;0.60;;;13.40;32.70;;;;;;6253413;28;20602;-64
2022/01/28 14:42:43;;;;;;;0.50;0.47;;;12.50;34.40;;;;;;6254808;28;20959;-63
2022/01/28 14:45:46;;;;;;;0.83;0.80;;;11.80;35.30;;;;;;6252780;28;20485;-64
2022/01/28 14:48:50;;;;;;;2.80;0.93;;;11.20;36.40;;;;;;6252714;28;20470;-65
2022/01/28 14:51:58;;;;;;;1.40;1.30;;;10.90;36.70;;;;;;6252709;28;20964;-62
2022/01/28 14:55:02;;;;;;;1.20;1.10;;;10.50;37.20;;;;;;6253088;28;20478;-63
2022/01/28 14:58:06;;;;;;;2.80;1.20;;;10.20;37.00;;;;;;6252773;28;20474;-63
2022/01/28 15:01:09;;;;;;;2.40;0.97;;;10.00;37.70;;;;;;6252925;28;20485;-64
2022/01/28 15:04:12;;;;;;;1.10;1.03;;;9.80;38.40;;;;;;6252304;28;20479;-64
2022/01/28 15:07:18;;;;;;;3.13;0.87;;;9.60;39.30;;;;;;6252523;28;20470;-64
2022/01/28 15:10:27;;;;;;;1.70;0.70;;;9.40;39.80;;;;;;6251924;28;20998;-63
2022/01/28 15:13:31;;;;;;;1.57;0.80;;;9.30;40.30;;;;;;6252308;28;20984;-61
2022/01/28 15:16:35;;;;;;;1.63;0.80;;;9.20;40.90;;;;;;6252219;28;20475;-61
2022/01/28 15:19:39;;;;;;;1.50;1.03;;;9.10;41.40;;;;;;6242408;28;20467;-61
2022/01/28 15:22:43;;;;;;;0.90;0.70;;;9.00;41.70;;;;;;6249863;28;20797;-61
2022/01/28 15:25:46;;;;;;;0.70;0.70;;;8.90;42.00;;;;;;6250271;28;20541;-60
2022/01/28 15:29:00;;;;;;;2.90;2.00;;;8.80;42.10;;;;;;6250772;28;20486;-63
2022/01/28 15:35:56;;;;;;;2.23;1.40;;;8.60;43.70;;;;;;6251139;28;20476;-61
2022/01/28 15:39:02;;;;;;;2.63;1.37;;;8.50;43.00;;;;;;6250892;28;20475;-62
2022/01/28 15:42:06;;;;;;;4.73;1.50;;;8.40;43.00;;;;;;6251982;28;20545;-61
2022/01/28 15:45:10;;;;;;;4.00;1.30;;;8.30;42.90;;;;;;6247478;28;20470;-60
2022/01/28 15:48:13;;;;;;;3.43;1.27;;;8.20;43.30;;;;;;6249703;28;20446;-62
2022/01/28 15:51:16;;;;;;;1.70;1.30;;;8.20;43.50;;;;;;6225213;28;20929;-60
2022/01/28 15:54:20;;;;;;;2.30;1.40;;;8.20;43.40;;;;;;6240709;28;20439;-60
2022/01/28 15:57:24;;;;;;;2.53;1.70;;;8.10;43.10;;;;;;6249731;28;20443;-61
2022/01/28 16:00:27;;;;;;;1.50;1.40;;;8.10;43.20;;;;;;6250247;28;20782;-61
2022/01/28 16:03:30;;;;;;;5.60;1.90;;;8.10;43.60;;;;;;6230512;28;20460;-61
2022/01/28 16:06:37;;;;;;;2.50;1.63;;;8.20;43.70;;;;;;6226173;28;20853;-61
2022/01/28 16:09:49;;;;;;;1.33;1.10;;;8.10;43.10;;;;;;6225848;28;20468;-62
2022/01/28 16:13:15;;;;;;;1.03;0.83;;;8.00;40.70;;;;;;6226536;28;20499;-61
2022/01/28 16:19:39;;;;;;;1.00;0.90;;;7.60;40.50;;;;;;6224951;28;20483;-62
2022/01/28 16:22:43;;;;;;;1.10;0.90;;;7.40;40.00;;;;;;6221018;28;20487;-62
2022/01/28 16:25:47;;;;;;;2.17;0.93;;;7.30;39.80;;;;;;6250750;28;20489;-61
2022/01/28 16:28:50;;;;;;;1.87;0.87;;;7.30;40.10;;;;;;6250446;28;20463;-62
2022/01/28 16:31:54;;;;;;;1.13;1.00;;;7.20;39.80;;;;;;6232238;28;20484;-62
2022/01/28 16:34:57;;;;;;;2.20;1.10;;;7.10;39.70;;;;;;6224979;28;20817;-61
2022/01/28 16:38:01;;;;;;;1.30;0.90;;;7.00;39.60;;;;;;6225646;28;20548;-61
2022/01/28 16:41:10;;;;;;;2.93;1.03;;;7.00;40.00;;;;;;6225633;28;20472;-61
2022/01/28 16:44:16;;;;;;;2.03;0.90;;;7.00;40.10;;;;;;6225649;28;20479;-60
2022/01/28 16:47:19;;;;;;;0.97;0.70;;;6.90;40.10;;;;;;6225544;28;20537;-60
2022/01/28 16:50:23;;;;;;;1.90;1.20;;;6.90;40.00;;;;;;6225566;28;21027;-61
2022/01/28 16:53:26;;;;;;;1.53;1.43;;;6.90;40.00;;;;;;6225457;28;20823;-60
2022/01/28 16:56:30;;;;;;;0.97;0.97;;;6.90;40.00;;;;;;6226273;28;20964;-61
2022/01/28 16:59:35;;;;;;;1.70;1.13;;;6.90;40.00;;;;;;6225872;28;20487;-62
2022/01/28 17:02:38;;;;;;;1.23;1.13;;;7.00;40.10;;;;;;6225387;28;20480;-63
2022/01/28 17:05:42;;;;;;;1.70;1.60;;;7.00;40.20;;;;;;6224720;28;20824;-62
2022/01/28 17:08:45;;;;;;;3.13;1.33;;;7.00;40.40;;;;;;6225407;28;20550;-62
2022/01/28 17:12:05;;;;;;;1.57;1.20;;;7.00;40.50;;;;;;6225059;28;20484;-62
2022/01/28 17:15:11;;;;;;;1.00;0.90;;;7.10;40.50;;;;;;6226234;28;20455;-63
2022/01/28 17:18:14;;;;;;;3.37;1.20;;;7.00;40.00;;;;;;6225496;28;20447;-62